createdAt,value
2018-08-22T00:01:34.544Z,21.80
2018-08-22T00:04:02.076Z,21.70
2018-08-22T00:06:29.590Z,21.70
2018-08-22T00:08:57.107Z,21.70
2018-08-22T00:11:24.590Z,21.70
2018-08-22T00:13:52.081Z,21.60
2018-08-22T00:16:19.611Z,21.60
2018-08-22T00:18:47.858Z,21.60
2018-08-22T00:21:15.472Z,21.60
2018-08-22T00:23:42.954Z,21.50
2018-08-22T00:26:10.466Z,21.50
2018-08-22T00:28:37.974Z,21.40
2018-08-22T00:31:05.810Z,21.40
2018-08-22T00:33:33.310Z,21.30
2018-08-22T00:36:00.821Z,21.30
2018-08-22T00:38:28.305Z,21.20
2018-08-22T00:40:55.869Z,21.20
2018-08-22T00:43:23.359Z,21.20
2018-08-22T00:45:50.859Z,21.20
2018-08-22T00:48:18.354Z,21.20
2018-08-22T00:50:45.894Z,21.10
2018-08-22T00:53:13.819Z,21.10
2018-08-22T00:55:41.327Z,21.00
2018-08-22T00:58:08.828Z,21.00
2018-08-22T01:00:36.474Z,20.90
2018-08-22T01:03:03.968Z,20.80
2018-08-22T01:05:31.471Z,20.80
2018-08-22T01:07:59.092Z,20.80
2018-08-22T01:10:26.797Z,20.70
2018-08-22T01:12:54.296Z,20.70
2018-08-22T01:15:21.836Z,20.60
2018-08-22T01:17:49.327Z,20.60
2018-08-22T01:20:17.803Z,20.50
2018-08-22T01:22:45.482Z,20.50
2018-08-22T01:25:13.905Z,20.60
2018-08-22T01:27:41.409Z,20.60
2018-08-22T01:30:08.886Z,20.60
2018-08-22T01:32:37.156Z,20.60
2018-08-22T01:35:04.662Z,20.60
2018-08-22T01:37:32.170Z,20.70
2018-08-22T01:39:59.678Z,20.70
2018-08-22T01:42:27.201Z,20.70
2018-08-22T01:44:55.005Z,20.70
2018-08-22T01:47:23.311Z,20.70
2018-08-22T01:49:50.815Z,20.70
2018-08-22T01:52:18.334Z,20.70
2018-08-22T01:54:45.874Z,20.70
2018-08-22T01:57:13.932Z,20.70
2018-08-22T01:59:41.443Z,20.60
2018-08-22T02:02:08.951Z,20.60
2018-08-22T02:04:36.614Z,20.60
2018-08-22T02:07:04.886Z,20.60
2018-08-22T02:09:32.380Z,20.50
2018-08-22T02:11:59.893Z,20.60
2018-08-22T02:14:27.377Z,20.50
2018-08-22T02:16:55.028Z,20.50
2018-08-22T02:19:23.438Z,20.50
2018-08-22T02:21:50.953Z,20.40
2018-08-22T02:24:18.433Z,20.40
2018-08-22T02:26:45.945Z,20.30
2018-08-22T02:29:13.517Z,20.30
2018-08-22T02:31:41.064Z,20.30
2018-08-22T02:34:08.554Z,20.30
2018-08-22T02:36:36.072Z,20.20
2018-08-22T02:39:03.556Z,20.20
2018-08-22T02:41:31.079Z,20.20
2018-08-22T02:43:58.574Z,20.20
2018-08-22T02:46:26.076Z,20.20
2018-08-22T02:48:53.613Z,20.20
2018-08-22T02:51:21.120Z,20.20
2018-08-22T02:53:48.615Z,20.20
2018-08-22T02:56:16.434Z,20.10
2018-08-22T02:58:43.974Z,20.10
2018-08-22T03:01:12.553Z,20.10
2018-08-22T03:03:40.130Z,20.10
2018-08-22T03:06:07.646Z,20.10
2018-08-22T03:08:35.179Z,20.10
2018-08-22T03:11:02.687Z,20.10
2018-08-22T03:13:30.214Z,20.10
2018-08-22T03:15:57.980Z,20.10
2018-08-22T03:18:25.800Z,20.20
2018-08-22T03:20:53.665Z,20.20
2018-08-22T03:23:21.195Z,20.20
2018-08-22T03:25:48.679Z,20.20
2018-08-22T03:28:16.565Z,20.20
2018-08-22T03:30:44.129Z,20.20
2018-08-22T03:33:12.356Z,20.10
2018-08-22T03:35:39.846Z,20.10
2018-08-22T03:38:07.349Z,20.10
2018-08-22T03:40:34.996Z,20.00
2018-08-22T03:43:02.514Z,19.90
2018-08-22T03:45:30.876Z,19.90
2018-08-22T03:47:58.448Z,19.90
2018-08-22T03:50:25.977Z,19.90
2018-08-22T03:52:53.470Z,19.80
2018-08-22T03:55:21.518Z,19.70
2018-08-22T03:57:49.036Z,19.50
2018-08-22T04:00:16.767Z,19.40
2018-08-22T04:02:44.329Z,19.30
2018-08-22T04:05:12.985Z,19.30
2018-08-22T04:07:40.488Z,19.30
2018-08-22T04:10:08.405Z,19.30
2018-08-22T04:12:35.934Z,19.40
2018-08-22T04:15:03.486Z,19.50
2018-08-22T04:17:31.021Z,19.50
2018-08-22T04:19:58.530Z,19.50
2018-08-22T04:22:26.052Z,19.50
2018-08-22T04:24:54.293Z,19.40
2018-08-22T04:27:21.803Z,19.40
2018-08-22T04:29:49.283Z,19.40
2018-08-22T04:32:16.779Z,19.40
2018-08-22T04:34:44.289Z,19.40
2018-08-22T04:37:11.790Z,19.40
2018-08-22T04:39:39.323Z,19.40
2018-08-22T04:42:07.227Z,19.50
2018-08-22T04:44:34.952Z,19.50
2018-08-22T04:47:02.462Z,19.50
2018-08-22T04:49:29.980Z,19.60
2018-08-22T04:51:57.480Z,19.60
2018-08-22T04:54:25.091Z,19.70
2018-08-22T04:56:53.346Z,19.80
2018-08-22T04:59:20.850Z,19.80
2018-08-22T05:01:48.348Z,19.80
2018-08-22T05:04:15.881Z,19.80
2018-08-22T05:06:43.369Z,19.90
2018-08-22T05:09:10.877Z,20.00
2018-08-22T05:11:38.363Z,20.10
2018-08-22T05:14:05.879Z,20.20
2018-08-22T05:16:33.408Z,20.40
2018-08-22T05:19:00.930Z,20.60
2018-08-22T05:21:28.439Z,20.80
2018-08-22T05:23:55.943Z,20.90
2018-08-22T05:26:23.438Z,21.10
2018-08-22T05:28:50.965Z,21.20
2018-08-22T05:31:18.455Z,21.30
2018-08-22T05:33:45.966Z,21.40
2018-08-22T05:36:13.448Z,21.70
2018-08-22T05:38:40.947Z,21.90
2018-08-22T05:41:08.743Z,22.00
2018-08-22T05:43:36.864Z,22.00
2018-08-22T05:46:04.363Z,22.00
2018-08-22T05:48:31.874Z,22.20
2018-08-22T05:50:59.358Z,22.40
2018-08-22T05:53:26.862Z,23.20
2018-08-22T05:55:54.394Z,24.20
2018-08-22T05:58:22.456Z,25.30
2018-08-22T06:00:49.952Z,26.30
2018-08-22T06:03:17.507Z,26.70
2018-08-22T06:05:45.020Z,26.80
2018-08-22T06:08:12.522Z,27.40
2018-08-22T06:10:40.026Z,27.80
2018-08-22T06:13:07.890Z,28.40
2018-08-22T06:15:35.533Z,28.90
2018-08-22T06:18:03.026Z,28.30
2018-08-22T06:20:30.531Z,27.80
2018-08-22T06:22:58.042Z,28.20
2018-08-22T06:25:25.828Z,27.70
2018-08-22T06:27:53.298Z,27.60
2018-08-22T06:30:20.818Z,28.10
2018-08-22T06:32:48.305Z,28.70
2018-08-22T06:35:15.879Z,29.40
2018-08-22T06:37:43.803Z,29.70
2018-08-22T06:40:11.780Z,30.30
2018-08-22T06:42:39.278Z,30.80
2018-08-22T06:45:07.210Z,31.50
2018-08-22T06:47:34.899Z,31.50
2018-08-22T06:50:02.615Z,31.70
2018-08-22T06:52:30.088Z,32.00
2018-08-22T06:54:57.612Z,32.50
2018-08-22T06:57:25.105Z,31.70
2018-08-22T06:59:52.616Z,31.40
2018-08-22T07:02:20.114Z,31.80
2018-08-22T07:04:47.614Z,33.00
2018-08-22T07:07:16.182Z,33.00
2018-08-22T07:09:43.709Z,33.10
2018-08-22T07:12:11.215Z,33.90
2018-08-22T07:14:38.730Z,33.50
2018-08-22T07:17:06.390Z,32.70
2018-08-22T07:19:33.889Z,32.90
2018-08-22T07:22:28.181Z,32.20
2018-08-22T07:24:55.839Z,31.50
2018-08-22T07:27:23.334Z,32.30
2018-08-22T07:29:50.839Z,31.70
2018-08-22T07:32:18.336Z,31.60
2018-08-22T07:34:45.874Z,32.60
2018-08-22T07:37:13.358Z,32.60
2018-08-22T07:39:41.674Z,31.80
2018-08-22T07:42:09.366Z,32.80
2018-08-22T07:44:37.007Z,33.60
2018-08-22T07:47:04.551Z,33.10
2018-08-22T07:49:32.071Z,32.70
2018-08-22T07:51:59.567Z,33.40
2018-08-22T07:54:27.835Z,31.90
2018-08-22T07:56:55.471Z,31.90
2018-08-22T07:59:22.984Z,32.80
2018-08-22T08:01:50.658Z,34.10
2018-08-22T08:04:17.992Z,35.00
2018-08-22T08:06:45.926Z,34.10
2018-08-22T08:09:13.429Z,35.30
2018-08-22T08:11:40.940Z,35.30
2018-08-22T08:14:08.716Z,32.40
2018-08-22T08:16:36.425Z,31.50
2018-08-22T08:19:03.933Z,31.30
2018-08-22T08:21:31.446Z,30.40
2018-08-22T08:23:58.947Z,31.50
2018-08-22T08:26:27.447Z,32.80
2018-08-22T08:28:55.003Z,32.10
2018-08-22T08:31:22.518Z,31.00
2018-08-22T08:33:50.007Z,32.30
2018-08-22T08:36:17.520Z,30.50
2018-08-22T08:38:45.013Z,31.50
2018-08-22T08:41:12.522Z,32.70
2018-08-22T08:43:40.035Z,33.60
2018-08-22T08:46:08.070Z,34.50
2018-08-22T08:48:35.766Z,33.10
2018-08-22T08:51:03.266Z,33.40
2018-08-22T08:53:30.775Z,34.00
2018-08-22T08:55:58.308Z,34.50
2018-08-22T08:58:25.855Z,34.30
2018-08-22T09:00:53.376Z,33.60
2018-08-22T09:03:20.873Z,31.40
2018-08-22T09:05:48.449Z,30.50
2018-08-22T09:08:15.947Z,30.60
2018-08-22T09:10:43.496Z,30.80
2018-08-22T09:13:10.994Z,30.50
2018-08-22T09:15:38.553Z,29.80
2018-08-22T09:18:06.010Z,29.70
2018-08-22T09:20:33.526Z,29.50
2018-08-22T09:23:01.034Z,29.50
2018-08-22T09:25:28.555Z,28.90
2018-08-22T09:27:56.050Z,29.00
2018-08-22T09:30:23.557Z,28.80
2018-08-22T09:32:51.047Z,28.70
2018-08-22T09:35:18.588Z,28.80
2018-08-22T09:37:46.078Z,29.10
2018-08-22T09:40:13.617Z,29.40
2018-08-22T09:42:41.089Z,29.30
2018-08-22T09:45:09.899Z,28.60
2018-08-22T09:47:37.403Z,28.80
2018-08-22T09:50:04.995Z,29.30
2018-08-22T09:52:32.522Z,29.40
2018-08-22T09:55:00.041Z,29.20
2018-08-22T09:57:27.555Z,29.20
2018-08-22T09:59:55.804Z,29.40
2018-08-22T10:02:23.900Z,29.40
2018-08-22T10:04:51.740Z,29.60
2018-08-22T10:07:19.985Z,29.70
2018-08-22T10:09:48.125Z,29.80
2018-08-22T10:12:16.270Z,29.90
2018-08-22T10:14:43.754Z,30.10
2018-08-22T10:17:11.303Z,30.10
2018-08-22T10:19:38.839Z,30.20
2018-08-22T10:22:06.870Z,29.90
2018-08-22T10:24:34.366Z,29.40
2018-08-22T10:27:01.952Z,29.60
2018-08-22T10:29:29.394Z,29.80
2018-08-22T10:31:57.670Z,29.60
2018-08-22T10:34:25.391Z,29.50
2018-08-22T10:36:52.900Z,29.70
2018-08-22T10:39:20.443Z,29.80
2018-08-22T10:41:47.913Z,29.90
2018-08-22T10:44:15.489Z,30.20
2018-08-22T10:46:43.038Z,30.30
2018-08-22T10:49:10.546Z,30.40
2018-08-22T10:51:38.041Z,30.40
2018-08-22T10:54:06.639Z,30.50
2018-08-22T10:56:34.197Z,30.50
2018-08-22T10:59:01.716Z,30.70
2018-08-22T11:01:29.240Z,30.90
2018-08-22T11:03:56.818Z,31.10
2018-08-22T11:06:24.340Z,31.00
2018-08-22T11:08:51.836Z,31.30
2018-08-22T11:11:19.392Z,31.50
2018-08-22T11:13:47.656Z,31.80
2018-08-22T11:16:15.439Z,31.80
2018-08-22T11:18:42.922Z,31.90
2018-08-22T11:21:14.068Z,31.90
2018-08-22T11:23:45.232Z,31.50
2018-08-22T11:26:15.478Z,31.50
2018-08-22T11:28:46.603Z,31.60
2018-08-22T11:31:16.694Z,31.50
2018-08-22T11:33:46.759Z,31.50
2018-08-22T11:36:13.770Z,31.40
2018-08-22T11:38:41.298Z,31.30
2018-08-22T11:41:08.951Z,31.20
2018-08-22T11:43:36.651Z,31.20
2018-08-22T11:46:05.044Z,30.90
2018-08-22T11:48:32.556Z,30.80
2018-08-22T11:51:00.049Z,31.00
2018-08-22T11:53:28.334Z,31.00
2018-08-22T11:55:55.833Z,30.90
2018-08-22T11:58:23.399Z,31.20
2018-08-22T12:00:50.878Z,31.30
2018-08-22T12:03:18.384Z,31.40
2018-08-22T12:05:45.913Z,31.20
2018-08-22T12:08:13.432Z,31.20
2018-08-22T12:10:40.999Z,31.40
2018-08-22T12:13:08.631Z,31.70
2018-08-22T12:15:36.270Z,31.90
2018-08-22T12:18:03.796Z,31.90
2018-08-22T12:20:31.805Z,32.00
2018-08-22T12:22:59.413Z,32.20
2018-08-22T12:25:26.964Z,32.30
2018-08-22T12:27:54.623Z,32.30
2018-08-22T12:30:22.147Z,32.40
2018-08-22T12:32:49.653Z,32.50
2018-08-22T12:35:17.910Z,32.60
2018-08-22T12:37:45.496Z,32.60
2018-08-22T12:40:12.983Z,32.50
2018-08-22T12:42:40.851Z,32.40
2018-08-22T12:45:09.459Z,32.30
2018-08-22T12:47:37.038Z,32.30
2018-08-22T12:50:04.577Z,31.90
2018-08-22T12:52:32.083Z,31.90
2018-08-22T12:54:59.682Z,31.90
2018-08-22T12:57:27.958Z,32.20
2018-08-22T12:59:55.469Z,32.20
2018-08-22T13:02:22.974Z,32.30
2018-08-22T13:04:50.490Z,32.50
2018-08-22T13:07:18.007Z,32.70
2018-08-22T13:09:45.774Z,32.70
2018-08-22T13:12:13.276Z,32.80
2018-08-22T13:14:40.993Z,32.80
2018-08-22T13:17:08.790Z,33.10
2018-08-22T13:19:36.470Z,33.10
2018-08-22T13:22:04.028Z,33.20
2018-08-22T13:24:32.825Z,33.20
2018-08-22T13:27:00.367Z,33.20
2018-08-22T13:29:27.880Z,33.30
2018-08-22T13:31:55.470Z,33.20
2018-08-22T13:34:22.975Z,33.20
2018-08-22T13:36:50.462Z,33.30
2018-08-22T13:39:17.978Z,33.20
2018-08-22T13:41:45.756Z,33.20
2018-08-22T13:44:13.317Z,33.20
2018-08-22T13:46:40.814Z,33.20
2018-08-22T13:49:08.493Z,33.20
2018-08-22T13:51:35.987Z,33.20
2018-08-22T13:54:03.492Z,33.30
2018-08-22T13:56:31.027Z,33.30
2018-08-22T13:58:58.518Z,33.30
2018-08-22T14:01:26.512Z,33.10
2018-08-22T14:03:53.989Z,33.20
2018-08-22T14:06:21.661Z,33.30
2018-08-22T14:08:49.169Z,33.20
2018-08-22T14:11:16.785Z,33.10
2018-08-22T14:13:44.348Z,33.20
2018-08-22T14:16:11.903Z,33.20
2018-08-22T14:18:39.374Z,33.20
2018-08-22T14:21:07.275Z,33.20
2018-08-22T14:23:34.999Z,33.20
2018-08-22T14:26:02.490Z,33.10
2018-08-22T14:28:30.005Z,33.10
2018-08-22T14:30:57.499Z,33.00
2018-08-22T14:33:25.062Z,33.00
2018-08-22T14:35:52.547Z,32.90
2018-08-22T14:38:20.050Z,32.90
2018-08-22T14:40:47.674Z,33.00
2018-08-22T14:43:15.467Z,32.90
2018-08-22T14:45:42.959Z,32.90
2018-08-22T14:48:10.618Z,32.90
2018-08-22T14:50:38.152Z,32.80
2018-08-22T14:53:06.002Z,32.80
2018-08-22T14:55:34.615Z,32.80
2018-08-22T14:58:02.165Z,32.80
2018-08-22T15:00:29.683Z,32.70
2018-08-22T15:02:57.481Z,32.70
2018-08-22T15:05:24.737Z,32.60
2018-08-22T15:07:52.443Z,32.50
2018-08-22T15:10:19.975Z,32.50
2018-08-22T15:12:47.508Z,32.40
2018-08-22T15:15:15.050Z,32.40
2018-08-22T15:17:42.542Z,32.40
2018-08-22T15:20:10.726Z,32.40
2018-08-22T15:22:38.216Z,32.40
2018-08-22T15:25:05.878Z,32.40
2018-08-22T15:27:33.403Z,32.40
2018-08-22T15:30:00.978Z,32.30
2018-08-22T15:32:28.482Z,32.30
2018-08-22T15:34:55.990Z,32.20
2018-08-22T15:37:23.552Z,32.00
2018-08-22T15:39:51.066Z,32.00
2018-08-22T15:42:18.551Z,32.00
2018-08-22T15:44:46.114Z,32.00
2018-08-22T15:47:13.678Z,32.00
2018-08-22T15:49:41.139Z,31.90
2018-08-22T15:52:08.943Z,31.90
2018-08-22T15:54:36.618Z,31.90
2018-08-22T15:57:04.127Z,32.00
2018-08-22T15:59:31.646Z,32.00
2018-08-22T16:01:59.154Z,32.00
2018-08-22T16:04:26.870Z,32.00
2018-08-22T16:06:54.591Z,31.90
2018-08-22T16:09:22.101Z,31.80
2018-08-22T16:11:49.594Z,31.70
2018-08-22T16:14:17.112Z,31.60
2018-08-22T16:16:44.606Z,31.50
2018-08-22T16:19:12.127Z,31.50
2018-08-22T16:21:39.623Z,31.50
2018-08-22T16:24:07.404Z,31.50
2018-08-22T16:26:35.047Z,31.50
2018-08-22T16:29:02.562Z,31.50
2018-08-22T16:31:30.133Z,31.40
2018-08-22T16:33:57.640Z,31.40
2018-08-22T16:36:25.132Z,31.40
2018-08-22T16:38:52.652Z,31.40
2018-08-22T16:41:20.154Z,31.40
2018-08-22T16:43:47.643Z,31.30
2018-08-22T16:46:15.442Z,31.30
2018-08-22T16:48:42.929Z,31.20
2018-08-22T16:51:10.453Z,31.20
2018-08-22T16:53:37.946Z,31.00
2018-08-22T16:56:05.514Z,30.90
2018-08-22T16:58:33.018Z,30.90
2018-08-22T17:01:01.210Z,30.90
2018-08-22T17:03:28.715Z,30.80
2018-08-22T17:05:56.353Z,30.70
2018-08-22T17:08:23.889Z,30.70
2018-08-22T17:10:51.411Z,30.60
2018-08-22T17:13:18.907Z,30.60
2018-08-22T17:15:46.485Z,30.60
2018-08-22T17:18:14.860Z,30.50
2018-08-22T17:20:42.477Z,30.50
2018-08-22T17:23:10.021Z,30.40
2018-08-22T17:25:37.491Z,30.30
2018-08-22T17:28:05.111Z,30.20
2018-08-22T17:30:32.747Z,30.00
2018-08-22T17:33:00.234Z,29.90
2018-08-22T17:35:27.730Z,29.80
2018-08-22T17:37:55.463Z,29.80
2018-08-22T17:40:22.964Z,29.70
2018-08-22T17:42:50.471Z,29.60
2018-08-22T17:45:17.959Z,29.60
2018-08-22T17:47:45.575Z,29.60
2018-08-22T17:50:13.069Z,29.60
2018-08-22T17:52:40.576Z,29.50
2018-08-22T17:55:09.311Z,29.40
2018-08-22T17:57:37.020Z,29.40
2018-08-22T18:00:04.513Z,29.40
2018-08-22T18:02:32.034Z,29.30
2018-08-22T18:04:59.522Z,29.20
2018-08-22T18:07:27.038Z,29.10
2018-08-22T18:09:55.484Z,29.00
2018-08-22T18:12:23.012Z,29.00
2018-08-22T18:14:50.513Z,29.00
2018-08-22T18:17:18.004Z,28.90
2018-08-22T18:19:46.545Z,28.80
2018-08-22T18:22:14.035Z,28.80
2018-08-22T18:24:41.545Z,28.70
2018-08-22T18:27:09.128Z,28.60
2018-08-22T18:29:36.855Z,28.50
2018-08-22T18:32:04.400Z,28.40
2018-08-22T18:34:31.943Z,28.30
2018-08-22T18:36:59.441Z,28.20
2018-08-22T18:39:27.715Z,28.10
2018-08-22T18:41:55.442Z,28.10
2018-08-22T18:44:22.962Z,28.10
2018-08-22T18:46:50.544Z,28.10
2018-08-22T18:49:18.076Z,28.00
2018-08-22T18:51:45.803Z,28.00
2018-08-22T18:54:13.321Z,28.00
2018-08-22T18:56:40.823Z,27.90
2018-08-22T18:59:08.959Z,27.90
2018-08-22T19:01:36.625Z,27.80
2018-08-22T19:04:04.156Z,27.80
2018-08-22T19:06:31.675Z,27.80
2018-08-22T19:08:59.235Z,27.80
2018-08-22T19:11:26.846Z,27.70
2018-08-22T19:13:54.352Z,27.70
2018-08-22T19:16:21.871Z,27.60
2018-08-22T19:18:49.392Z,27.50
2018-08-22T19:21:17.232Z,27.30
2018-08-22T19:23:44.993Z,27.30
2018-08-22T19:26:12.664Z,27.20
2018-08-22T19:28:40.190Z,27.10
2018-08-22T19:31:07.682Z,27.10
2018-08-22T19:33:35.433Z,27.00
2018-08-22T19:36:03.044Z,26.90
2018-08-22T19:38:30.424Z,26.80
2018-08-22T19:40:57.930Z,26.80
2018-08-22T19:43:25.533Z,26.70
2018-08-22T19:45:53.798Z,26.70
2018-08-22T19:48:21.292Z,26.60
2018-08-22T19:50:48.820Z,26.50
2018-08-22T19:53:16.549Z,26.50
2018-08-22T19:55:44.057Z,26.40
2018-08-22T19:58:11.713Z,26.40
2018-08-22T20:00:39.248Z,26.40
2018-08-22T20:03:06.866Z,26.40
2018-08-22T20:05:34.384Z,26.40
2018-08-22T20:08:01.882Z,26.40
2018-08-22T20:10:29.390Z,26.40
2018-08-22T20:12:57.018Z,26.40
2018-08-22T20:15:24.543Z,26.30
2018-08-22T20:17:52.035Z,26.20
2018-08-22T20:20:19.573Z,26.20
2018-08-22T20:22:47.876Z,26.00
2018-08-22T20:25:17.042Z,26.00
2018-08-22T20:27:44.564Z,26.00
2018-08-22T20:30:12.241Z,26.00
2018-08-22T20:32:39.755Z,26.00
2018-08-22T20:35:07.663Z,25.90
2018-08-22T20:37:35.447Z,25.90
2018-08-22T20:40:03.048Z,25.90
2018-08-22T20:42:30.648Z,25.90
2018-08-22T20:44:58.121Z,25.90
2018-08-22T20:47:25.785Z,25.80
2018-08-22T20:49:53.306Z,25.90
2018-08-22T20:52:20.811Z,25.90
2018-08-22T20:54:48.307Z,25.90
2018-08-22T20:57:16.059Z,25.90
2018-08-22T20:59:43.549Z,25.70
2018-08-22T21:02:11.089Z,25.60
2018-08-22T21:04:39.142Z,25.50
2018-08-22T21:07:06.825Z,25.40
2018-08-22T21:09:34.331Z,25.40
2018-08-22T21:12:01.855Z,25.50
2018-08-22T21:14:29.343Z,25.50
2018-08-22T21:16:56.967Z,25.40
2018-08-22T21:19:24.472Z,25.40
2018-08-22T21:21:51.992Z,25.20
2018-08-22T21:24:19.490Z,25.20
2018-08-22T21:26:47.768Z,25.10
2018-08-22T21:29:15.457Z,25.10
2018-08-22T21:31:42.987Z,25.10
2018-08-22T21:34:10.498Z,25.00
2018-08-22T21:36:38.002Z,24.90
2018-08-22T21:39:05.775Z,24.90
2018-08-22T21:41:33.322Z,24.80
2018-08-22T21:44:00.806Z,24.70
2018-08-22T21:46:28.314Z,24.70
2018-08-22T21:48:55.914Z,24.70
2018-08-22T21:51:23.411Z,24.70
2018-08-22T21:53:50.940Z,24.60
2018-08-22T21:56:18.480Z,24.60
2018-08-22T21:58:46.007Z,24.60
2018-08-22T22:01:13.744Z,24.60
2018-08-22T22:03:41.264Z,24.50
2018-08-22T22:06:08.754Z,24.50
2018-08-22T22:08:36.490Z,24.40
2018-08-22T22:11:03.992Z,24.40
2018-08-22T22:13:31.613Z,24.40
2018-08-22T22:15:59.035Z,24.40
2018-08-22T22:18:26.689Z,24.40
2018-08-22T22:20:54.213Z,24.50
2018-08-22T22:23:21.753Z,24.60
2018-08-22T22:25:50.021Z,24.70
2018-08-22T22:28:17.527Z,24.60
2018-08-22T22:30:45.827Z,24.70
2018-08-22T22:33:14.638Z,24.50
2018-08-22T22:35:42.140Z,24.50
2018-08-22T22:38:09.671Z,24.40
2018-08-22T22:40:37.209Z,24.30
2018-08-22T22:43:05.010Z,24.30
2018-08-22T22:45:32.508Z,24.20
2018-08-22T22:48:00.057Z,24.20
2018-08-22T22:50:27.540Z,24.10
2018-08-22T22:52:55.073Z,24.00
2018-08-22T22:55:22.573Z,24.00
2018-08-22T22:57:50.089Z,24.00
2018-08-22T23:00:17.909Z,24.00
2018-08-22T23:02:45.934Z,23.90
2018-08-22T23:05:14.241Z,23.90
2018-08-22T23:07:41.736Z,23.80
2018-08-22T23:10:09.246Z,23.90
2018-08-22T23:12:36.876Z,24.00
2018-08-22T23:15:04.367Z,24.10
2018-08-22T23:17:31.870Z,24.20
2018-08-22T23:19:59.385Z,24.20
2018-08-22T23:22:27.045Z,24.20
2018-08-22T23:24:54.554Z,24.20
2018-08-22T23:27:22.049Z,24.20
2018-08-22T23:29:49.553Z,24.20
2018-08-22T23:32:17.815Z,24.20
2018-08-22T23:34:45.490Z,24.20
2018-08-22T23:37:12.981Z,24.10
2018-08-22T23:39:40.503Z,24.00
2018-08-22T23:42:08.002Z,24.00
2018-08-22T23:44:35.772Z,24.00
2018-08-22T23:47:03.260Z,23.90
2018-08-22T23:49:31.154Z,23.80
2018-08-22T23:51:58.677Z,23.80
2018-08-22T23:54:26.302Z,23.80
2018-08-22T23:56:53.803Z,23.70
2018-08-22T23:59:21.308Z,23.60
